createdAt,value
2022-09-06T00:00:19.018Z,1.33
2022-09-06T00:10:23.548Z,1.80
2022-09-06T00:20:27.639Z,1.40
2022-09-06T00:30:30.661Z,1.50
2022-09-06T00:40:35.644Z,1.47
2022-09-06T00:50:38.432Z,1.40
2022-09-06T01:00:42.797Z,1.60
2022-09-06T01:11:02.337Z,1.60
2022-09-06T01:21:19.257Z,1.33
2022-09-06T01:31:46.700Z,1.43
2022-09-06T01:41:49.316Z,1.67
2022-09-06T01:52:14.784Z,1.40
2022-09-06T02:02:40.191Z,1.30
2022-09-06T02:12:44.003Z,1.67
2022-09-06T02:22:51.586Z,1.43
2022-09-06T02:33:00.629Z,1.60
2022-09-06T02:43:04.136Z,1.77
2022-09-06T02:53:11.650Z,1.60
2022-09-06T03:03:17.116Z,2.10
2022-09-06T03:13:19.455Z,1.63
2022-09-06T03:23:28.065Z,1.43
2022-09-06T03:33:33.779Z,1.40
2022-09-06T03:43:35.998Z,2.10
2022-09-06T03:53:40.519Z,1.60
2022-09-06T04:03:47.788Z,1.33
2022-09-06T04:13:50.063Z,2.00
2022-09-06T04:23:52.097Z,1.60
2022-09-06T04:33:58.876Z,1.63
2022-09-06T04:44:02.644Z,1.23
2022-09-06T04:54:07.623Z,1.40
2022-09-06T05:04:11.897Z,1.83
2022-09-06T05:14:20.864Z,1.60
2022-09-06T05:24:39.105Z,1.75
2022-09-06T05:34:43.502Z,1.45
2022-09-06T05:44:48.307Z,1.23
2022-09-06T05:54:53.182Z,1.92
2022-09-06T06:04:58.483Z,1.85
2022-09-06T06:15:01.832Z,1.20
2022-09-06T06:25:08.709Z,1.30
2022-09-06T06:35:14.634Z,1.90
2022-09-06T06:45:20.499Z,1.63
2022-09-06T06:55:23.123Z,1.30
2022-09-06T07:16:11.646Z,1.13
2022-09-06T07:26:18.682Z,0.80
2022-09-06T07:36:20.866Z,0.80
2022-09-06T07:46:27.468Z,0.82
2022-09-06T07:56:30.727Z,0.68
2022-09-06T08:17:03.198Z,0.60
2022-09-06T08:27:09.127Z,1.00
2022-09-06T08:37:17.237Z,0.60
2022-09-06T08:47:23.421Z,0.50
2022-09-06T08:57:40.519Z,0.75
2022-09-06T09:07:52.662Z,0.82
2022-09-06T09:17:57.565Z,1.00
2022-09-06T09:28:04.631Z,0.57
2022-09-06T09:38:11.496Z,0.50
2022-09-06T09:48:24.961Z,0.70
2022-09-06T09:58:50.513Z,0.88
2022-09-06T10:08:55.796Z,0.82
2022-09-06T10:18:58.100Z,0.90
2022-09-06T10:29:05.710Z,0.93
2022-09-06T10:39:15.617Z,0.75
2022-09-06T10:49:19.787Z,0.50
2022-09-06T11:09:45.178Z,0.70
2022-09-06T11:20:08.068Z,0.60
2022-09-06T11:30:15.037Z,0.65
2022-09-06T11:40:27.685Z,0.52
2022-09-06T11:51:01.389Z,0.77
2022-09-06T12:01:12.743Z,0.60
2022-09-06T12:11:39.525Z,0.50
2022-09-06T12:21:46.430Z,0.80
2022-09-06T12:31:58.878Z,0.50
2022-09-06T12:42:07.975Z,0.77
2022-09-06T12:52:21.262Z,0.90
2022-09-06T13:02:43.702Z,0.50
2022-09-06T13:12:50.834Z,0.50
2022-09-06T13:22:54.400Z,0.47
2022-09-06T13:32:56.465Z,3.10
2022-09-06T13:43:01.881Z,0.63
2022-09-06T13:53:09.049Z,0.50
2022-09-06T14:03:17.208Z,1.10
2022-09-06T14:13:20.451Z,0.75
2022-09-06T14:23:23.526Z,0.50
2022-09-06T14:33:26.618Z,0.50
2022-09-06T14:43:28.793Z,0.57
2022-09-06T14:53:40.550Z,1.13
2022-09-06T15:03:47.910Z,0.50
2022-09-06T15:13:52.098Z,0.73
2022-09-06T15:23:58.156Z,0.60
2022-09-06T15:34:03.007Z,0.70
2022-09-06T15:44:11.139Z,0.50
2022-09-06T15:54:15.986Z,0.70
2022-09-06T16:04:20.142Z,0.77
2022-09-06T16:14:32.452Z,0.80
2022-09-06T16:24:36.831Z,0.50
2022-09-06T16:34:38.924Z,0.60
2022-09-06T16:44:41.507Z,0.77
2022-09-06T16:54:46.065Z,0.70
2022-09-06T17:04:50.523Z,0.82
2022-09-06T17:15:03.208Z,1.00
2022-09-06T17:25:08.175Z,0.80
2022-09-06T17:35:10.862Z,0.70
2022-09-06T17:45:12.982Z,0.90
2022-09-06T17:55:19.345Z,1.55
2022-09-06T18:05:21.811Z,1.10
2022-09-06T18:15:28.831Z,1.40
2022-09-06T18:25:33.675Z,0.95
2022-09-06T18:35:44.189Z,1.38
2022-09-06T18:45:53.328Z,1.80
2022-09-06T18:55:55.541Z,1.60
2022-09-06T19:06:10.323Z,1.25
2022-09-06T19:16:16.371Z,1.90
2022-09-06T19:26:20.894Z,1.80
2022-09-06T19:36:24.851Z,1.70
2022-09-06T19:46:29.634Z,2.13
2022-09-06T19:56:35.263Z,2.97
2022-09-06T20:06:38.081Z,2.13
2022-09-06T20:16:42.269Z,2.38
2022-09-06T20:26:51.090Z,2.13
2022-09-06T20:36:57.743Z,2.00
2022-09-06T20:47:01.219Z,2.47
2022-09-06T20:57:08.282Z,1.98
2022-09-06T21:07:10.481Z,1.58
2022-09-06T21:17:17.110Z,1.70
2022-09-06T21:27:21.541Z,1.95
2022-09-06T21:37:27.275Z,1.95
2022-09-06T21:47:32.344Z,2.78
2022-09-06T21:57:34.570Z,1.87
2022-09-06T22:07:41.273Z,1.90
2022-09-06T22:17:45.934Z,2.53
2022-09-06T22:27:53.325Z,2.63
2022-09-06T22:38:00.099Z,2.80
2022-09-06T22:48:04.824Z,2.60
2022-09-06T22:58:09.923Z,2.63
2022-09-06T23:08:12.168Z,2.50
2022-09-06T23:18:19.255Z,2.27
2022-09-06T23:28:21.636Z,2.93
2022-09-06T23:38:24.386Z,2.50
2022-09-06T23:48:29.209Z,2.90
2022-09-06T23:58:39.310Z,3.07
